createdAt,value
2023-03-29T00:00:14.648Z,424.7692
2023-03-29T00:01:35.051Z,422.5385
2023-03-29T00:02:17.918Z,425.0000
2023-03-29T00:03:19.729Z,421.0000
2023-03-29T00:04:21.226Z,424.1538
2023-03-29T00:05:22.853Z,426.7692
2023-03-29T00:06:24.532Z,425.3077
2023-03-29T00:07:26.183Z,425.8462
2023-03-29T00:08:27.836Z,426.3077
2023-03-29T00:09:29.484Z,424.9231
2023-03-29T00:10:31.120Z,425.3077
2023-03-29T00:11:32.800Z,425.9231
2023-03-29T00:12:34.428Z,428.4615
2023-03-29T00:13:36.128Z,426.8462
2023-03-29T00:14:37.734Z,431.1538
2023-03-29T00:15:39.405Z,426.0000
2023-03-29T00:16:41.071Z,429.9231
2023-03-29T00:17:42.767Z,431.0769
2023-03-29T00:18:44.385Z,434.5385
2023-03-29T00:19:46.023Z,428.6154
2023-03-29T00:20:47.666Z,429.3077
2023-03-29T00:21:49.322Z,430.6154
2023-03-29T00:22:50.967Z,432.0000
2023-03-29T00:23:52.670Z,432.9231
2023-03-29T00:24:54.319Z,429.8462
2023-03-29T00:25:55.957Z,432.3846
2023-03-29T00:26:57.610Z,432.3077
2023-03-29T00:27:59.268Z,432.8462
2023-03-29T00:29:00.943Z,431.4615
2023-03-29T00:30:02.570Z,436.1538
2023-03-29T00:31:04.430Z,434.1538
2023-03-29T00:32:05.877Z,435.5385
2023-03-29T00:33:07.554Z,434.3077
2023-03-29T00:34:09.199Z,437.0769
2023-03-29T00:35:10.825Z,435.0769
2023-03-29T00:36:12.497Z,437.0000
2023-03-29T00:37:14.112Z,438.2308
2023-03-29T00:38:15.798Z,434.6154
2023-03-29T00:39:17.449Z,438.9231
2023-03-29T00:40:19.099Z,438.8462
2023-03-29T00:41:20.734Z,436.0000
2023-03-29T00:42:22.407Z,439.5385
2023-03-29T00:43:24.041Z,438.2308
2023-03-29T00:44:25.744Z,436.6154
2023-03-29T00:45:27.354Z,437.8462
2023-03-29T00:46:29.108Z,441.1538
2023-03-29T00:47:30.671Z,439.6154
2023-03-29T00:48:32.383Z,439.0000
2023-03-29T00:49:33.994Z,444.1538
2023-03-29T00:50:35.647Z,438.4615
2023-03-29T00:51:37.291Z,439.3846
2023-03-29T00:52:38.950Z,443.5385
2023-03-29T00:53:40.580Z,440.6154
2023-03-29T00:54:42.294Z,447.0000
2023-03-29T00:55:43.895Z,444.7692
2023-03-29T00:56:45.578Z,444.9231
2023-03-29T00:57:47.200Z,441.6923
2023-03-29T00:58:48.871Z,444.4615
2023-03-29T00:59:50.579Z,441.2308
2023-03-29T01:00:52.206Z,444.3846
2023-03-29T01:01:53.871Z,445.0000
2023-03-29T01:02:55.538Z,446.8462
2023-03-29T01:03:57.154Z,443.4615
2023-03-29T01:04:58.817Z,447.6923
2023-03-29T01:06:00.462Z,448.3077
2023-03-29T01:07:02.159Z,446.2308
2023-03-29T01:08:03.757Z,445.1538
2023-03-29T01:09:05.419Z,446.1538
2023-03-29T01:10:07.085Z,454.0000
2023-03-29T01:11:08.735Z,444.0000
2023-03-29T01:12:10.388Z,448.6923
2023-03-29T01:13:12.043Z,449.0000
2023-03-29T01:14:13.684Z,448.9231
2023-03-29T01:15:15.398Z,448.3846
2023-03-29T01:16:17.094Z,448.5385
2023-03-29T01:17:18.683Z,447.6154
2023-03-29T01:18:20.307Z,453.3077
2023-03-29T01:19:21.977Z,450.7692
2023-03-29T01:20:23.635Z,449.6923
2023-03-29T01:21:25.285Z,454.0000
2023-03-29T01:22:26.931Z,449.3846
2023-03-29T01:23:28.599Z,451.6923
2023-03-29T01:24:30.225Z,456.4615
2023-03-29T01:25:31.918Z,454.0000
2023-03-29T01:26:33.540Z,453.8462
2023-03-29T01:27:35.208Z,452.4615
2023-03-29T01:28:36.847Z,454.1538
2023-03-29T01:29:38.507Z,456.9231
2023-03-29T01:30:40.173Z,452.7692
2023-03-29T01:31:41.902Z,456.6154
2023-03-29T01:32:43.450Z,458.1538
2023-03-29T01:33:45.142Z,458.5385
2023-03-29T01:34:46.802Z,455.2308
2023-03-29T01:35:48.521Z,457.5385
2023-03-29T01:36:50.073Z,457.6923
2023-03-29T01:37:51.760Z,455.6923
2023-03-29T01:38:53.401Z,459.6923
2023-03-29T01:39:55.061Z,457.8462
2023-03-29T01:40:56.722Z,462.0000
2023-03-29T01:41:58.367Z,457.6154
2023-03-29T01:43:00.024Z,459.2308
2023-03-29T01:44:01.692Z,457.3077
2023-03-29T01:45:03.325Z,457.8462
2023-03-29T01:46:05.454Z,458.1538
2023-03-29T01:47:06.630Z,456.4615
2023-03-29T01:48:08.303Z,458.5385
2023-03-29T01:49:09.950Z,459.2308
2023-03-29T01:50:11.620Z,462.4615
2023-03-29T01:51:13.316Z,459.1538
2023-03-29T01:52:14.941Z,464.8462
2023-03-29T01:53:16.572Z,467.2308
2023-03-29T01:54:18.245Z,466.6923
2023-03-29T01:55:19.879Z,465.3846
2023-03-29T01:56:21.571Z,465.8462
2023-03-29T01:57:23.276Z,466.6923
2023-03-29T01:58:24.861Z,467.0000
2023-03-29T01:59:26.500Z,473.6923
2023-03-29T02:00:28.152Z,471.6923
2023-03-29T02:01:29.841Z,475.6154
2023-03-29T02:02:31.560Z,471.6923
2023-03-29T02:03:33.199Z,475.0000
2023-03-29T02:04:34.796Z,475.6923
2023-03-29T02:05:36.409Z,478.3846
2023-03-29T02:06:38.100Z,481.3077
2023-03-29T02:07:39.713Z,481.4615
2023-03-29T02:08:41.386Z,480.7692
2023-03-29T02:09:43.022Z,484.1538
2023-03-29T02:10:44.692Z,483.7692
2023-03-29T02:11:46.353Z,483.9231
2023-03-29T02:12:48.001Z,484.3077
2023-03-29T02:13:49.641Z,487.1538
2023-03-29T02:14:51.304Z,486.4615
2023-03-29T02:15:53.117Z,486.3077
2023-03-29T02:16:54.633Z,485.1538
2023-03-29T02:17:56.262Z,488.3846
2023-03-29T02:18:57.933Z,488.0769
2023-03-29T02:19:59.549Z,489.5385
2023-03-29T02:21:01.441Z,490.4615
2023-03-29T02:22:02.892Z,490.3846
2023-03-29T02:23:04.537Z,489.4615
2023-03-29T02:24:06.156Z,489.2308
2023-03-29T02:25:07.841Z,492.5385
2023-03-29T02:26:09.460Z,490.6923
2023-03-29T02:27:11.178Z,488.4615
2023-03-29T02:28:12.781Z,494.5385
2023-03-29T02:29:14.446Z,494.0000
2023-03-29T02:30:16.083Z,492.6154
2023-03-29T02:31:17.788Z,491.0769
2023-03-29T02:32:19.405Z,491.9231
2023-03-29T02:33:21.048Z,492.0769
2023-03-29T02:34:22.756Z,493.0000
2023-03-29T02:35:24.359Z,491.3077
2023-03-29T02:36:25.987Z,491.9231
2023-03-29T02:37:27.686Z,493.0000
2023-03-29T02:38:29.303Z,496.6923
2023-03-29T02:39:30.972Z,492.4615
2023-03-29T02:40:32.609Z,493.2308
2023-03-29T02:41:34.262Z,494.2308
2023-03-29T02:42:35.949Z,496.4615
2023-03-29T02:43:37.572Z,494.7692
2023-03-29T02:44:39.278Z,499.3077
2023-03-29T02:45:40.936Z,498.7692
2023-03-29T02:46:42.691Z,495.0769
2023-03-29T02:47:44.364Z,494.5385
2023-03-29T02:48:45.887Z,495.4615
2023-03-29T02:49:50.343Z,497.2308
2023-03-29T02:50:49.215Z,496.3846
2023-03-29T02:51:50.844Z,498.8462
2023-03-29T02:52:52.562Z,492.7692
2023-03-29T02:53:54.148Z,498.8462
2023-03-29T02:54:55.829Z,498.0769
2023-03-29T02:55:57.449Z,499.0000
2023-03-29T02:56:59.160Z,499.5385
2023-03-29T02:58:00.780Z,497.2308
2023-03-29T02:59:02.433Z,496.6154
2023-03-29T03:00:04.075Z,499.8462
2023-03-29T03:01:05.730Z,496.6923
2023-03-29T03:02:07.435Z,498.8462
2023-03-29T03:03:09.214Z,498.6154
2023-03-29T03:04:10.749Z,496.3846
2023-03-29T03:05:12.352Z,499.3846
2023-03-29T03:06:14.931Z,501.0000
2023-03-29T03:07:15.663Z,497.8462
2023-03-29T03:08:17.304Z,497.9231
2023-03-29T03:09:18.949Z,498.8462
2023-03-29T03:10:20.601Z,499.3846
2023-03-29T03:11:22.260Z,499.6154
2023-03-29T03:12:23.902Z,496.2308
2023-03-29T03:13:25.590Z,497.9231
2023-03-29T03:14:27.209Z,501.3077
2023-03-29T03:15:28.875Z,499.3077
2023-03-29T03:16:30.588Z,501.5385
2023-03-29T03:17:32.195Z,500.2308
2023-03-29T03:18:33.998Z,502.1538
2023-03-29T03:19:35.485Z,498.7692
2023-03-29T03:20:37.095Z,501.9231
2023-03-29T03:21:38.786Z,497.5385
2023-03-29T03:22:40.420Z,500.4615
2023-03-29T03:23:42.123Z,499.7692
2023-03-29T03:24:43.704Z,502.9231
2023-03-29T03:25:45.366Z,499.4615
2023-03-29T03:26:47.016Z,500.8462
2023-03-29T03:27:48.691Z,502.0769
2023-03-29T03:28:50.351Z,501.6923
2023-03-29T03:29:51.982Z,500.0769
2023-03-29T03:30:53.640Z,502.6154
2023-03-29T03:31:55.310Z,502.3077
2023-03-29T03:32:56.953Z,502.9231
2023-03-29T03:33:58.594Z,503.3077
2023-03-29T03:35:00.216Z,501.6923
2023-03-29T03:36:01.983Z,502.5385
2023-03-29T03:37:03.522Z,502.9231
2023-03-29T03:38:05.195Z,500.1538
2023-03-29T03:39:06.841Z,504.4615
2023-03-29T03:40:08.495Z,503.6923
2023-03-29T03:41:10.133Z,503.7692
2023-03-29T03:42:11.804Z,501.3846
2023-03-29T03:43:13.434Z,502.6154
2023-03-29T03:44:15.134Z,503.8462
2023-03-29T03:45:16.745Z,505.7692
2023-03-29T03:46:18.500Z,503.6154
2023-03-29T03:47:20.046Z,503.6923
2023-03-29T03:48:21.726Z,505.3077
2023-03-29T03:49:23.408Z,504.3077
2023-03-29T03:50:25.024Z,501.7692
2023-03-29T03:51:26.666Z,504.8462
2023-03-29T03:52:28.336Z,504.6154
2023-03-29T03:53:29.973Z,506.1538
2023-03-29T03:54:31.664Z,503.3077
2023-03-29T03:55:33.309Z,506.6923
2023-03-29T03:56:34.964Z,501.0769
2023-03-29T03:57:36.584Z,500.4615
2023-03-29T03:58:38.254Z,504.6923
2023-03-29T03:59:39.919Z,504.3846
2023-03-29T04:00:41.563Z,506.2308
2023-03-29T04:01:43.208Z,504.6154
2023-03-29T04:02:44.904Z,509.0769
2023-03-29T04:03:46.543Z,503.3846
2023-03-29T04:04:48.188Z,505.5385
2023-03-29T04:05:49.812Z,505.7692
2023-03-29T04:06:51.497Z,507.0769
2023-03-29T04:07:53.121Z,507.0000
2023-03-29T04:08:54.792Z,505.0769
2023-03-29T04:09:56.462Z,506.3846
2023-03-29T04:10:58.107Z,505.6154
2023-03-29T04:11:59.745Z,506.7692
2023-03-29T04:13:01.462Z,507.5385
2023-03-29T04:14:03.056Z,505.1538
2023-03-29T04:15:04.748Z,505.0000
2023-03-29T04:16:06.392Z,507.8462
2023-03-29T04:17:08.052Z,508.3077
2023-03-29T04:18:09.757Z,507.6154
2023-03-29T04:19:11.349Z,506.0000
2023-03-29T04:20:13.015Z,504.3846
2023-03-29T04:21:14.648Z,503.2308
2023-03-29T04:22:16.284Z,508.0769
2023-03-29T04:23:17.975Z,510.9231
2023-03-29T04:24:19.604Z,510.0000
2023-03-29T04:25:21.294Z,508.3077
2023-03-29T04:26:22.915Z,510.2308
2023-03-29T04:27:24.565Z,507.4615
2023-03-29T04:28:26.253Z,508.2308
2023-03-29T04:29:27.853Z,508.3846
2023-03-29T04:30:29.546Z,509.0000
2023-03-29T04:31:31.272Z,509.7692
2023-03-29T04:32:32.855Z,511.8462
2023-03-29T04:33:34.472Z,510.1538
2023-03-29T04:34:36.140Z,509.3077
2023-03-29T04:35:37.851Z,505.4615
2023-03-29T04:36:39.453Z,510.5385
2023-03-29T04:37:41.078Z,508.4615
2023-03-29T04:38:46.097Z,510.9231
2023-03-29T04:39:44.380Z,510.4615
2023-03-29T04:40:46.072Z,509.0000
2023-03-29T04:41:47.687Z,510.6154
2023-03-29T04:42:49.365Z,507.4615
2023-03-29T04:43:51.000Z,511.3846
2023-03-29T04:44:52.698Z,494.0000
2023-03-29T04:45:54.379Z,182.3846
2023-03-29T04:46:55.992Z,10.6923
2023-03-29T04:47:57.663Z,0.0000
2023-03-29T04:48:59.317Z,0.0000
2023-03-29T04:50:00.912Z,0.0000
2023-03-29T04:51:02.777Z,0.0000
2023-03-29T04:52:04.226Z,0.0000
2023-03-29T04:53:05.896Z,0.0000
2023-03-29T04:54:07.530Z,0.0000
2023-03-29T04:55:09.232Z,10.3846
2023-03-29T04:56:10.858Z,38.6923
2023-03-29T04:57:12.559Z,259.6154
2023-03-29T04:58:14.121Z,478.3846
2023-03-29T04:59:15.795Z,405.1538
2023-03-29T05:00:17.463Z,333.4615
2023-03-29T05:01:19.171Z,244.7692
2023-03-29T05:02:20.736Z,217.6154
2023-03-29T05:03:22.418Z,220.0769
2023-03-29T05:04:24.065Z,227.8462
2023-03-29T05:05:25.732Z,252.4615
2023-03-29T05:06:27.376Z,280.9231
2023-03-29T05:07:29.085Z,316.6923
2023-03-29T05:08:30.664Z,334.8462
2023-03-29T05:09:35.037Z,336.9231
2023-03-29T05:10:33.977Z,328.6923
2023-03-29T05:11:35.678Z,330.9231
2023-03-29T05:12:37.285Z,347.6154
2023-03-29T05:13:38.937Z,359.0000
2023-03-29T05:14:40.589Z,383.6923
2023-03-29T05:15:42.267Z,427.0000
2023-03-29T05:16:43.999Z,401.0769
2023-03-29T05:17:45.576Z,422.6923
2023-03-29T05:18:47.214Z,412.3846
2023-03-29T05:19:48.883Z,418.1538
2023-03-29T05:20:50.535Z,430.3846
2023-03-29T05:21:52.219Z,432.3077
2023-03-29T05:22:53.858Z,432.7692
2023-03-29T05:23:55.503Z,439.9231
2023-03-29T05:24:57.135Z,448.5385
2023-03-29T05:25:58.808Z,459.6154
2023-03-29T05:27:00.468Z,466.3077
2023-03-29T05:28:02.112Z,467.0769
2023-03-29T05:29:03.749Z,470.6923
2023-03-29T05:30:05.422Z,474.6923
2023-03-29T05:31:07.068Z,477.6154
2023-03-29T05:32:08.857Z,475.0769
2023-03-29T05:33:10.405Z,470.0769
2023-03-29T05:34:12.032Z,473.8462
2023-03-29T05:35:13.661Z,475.6154
2023-03-29T05:36:15.408Z,474.3846
2023-03-29T05:37:17.024Z,477.4615
2023-03-29T05:38:18.648Z,476.3846
2023-03-29T05:39:20.283Z,481.1538
2023-03-29T05:40:21.966Z,483.3846
2023-03-29T05:41:23.622Z,495.2308
2023-03-29T05:42:25.283Z,504.4615
2023-03-29T05:43:26.898Z,506.1538
2023-03-29T05:44:28.581Z,504.3846
2023-03-29T05:45:30.276Z,477.8462
2023-03-29T05:46:31.896Z,468.2308
2023-03-29T05:47:33.637Z,456.3846
2023-03-29T05:48:35.303Z,445.0769
2023-03-29T05:49:36.852Z,444.6154
2023-03-29T05:50:38.476Z,444.0769
2023-03-29T05:51:40.145Z,442.0769
2023-03-29T05:52:41.810Z,443.1538
2023-03-29T05:53:43.466Z,445.4615
2023-03-29T05:54:45.135Z,448.4615
2023-03-29T05:55:46.782Z,458.6923
2023-03-29T05:56:48.456Z,460.2308
2023-03-29T05:57:50.106Z,466.3846
2023-03-29T05:58:53.657Z,473.1538
2023-03-29T05:59:53.411Z,475.0769
2023-03-29T06:00:55.010Z,478.6923
2023-03-29T06:01:56.734Z,482.1538
2023-03-29T06:03:03.780Z,484.6154
2023-03-29T06:04:00.102Z,486.1667
2023-03-29T06:05:01.657Z,482.9231
2023-03-29T06:06:03.310Z,485.6154
2023-03-29T06:07:04.934Z,489.1538
2023-03-29T06:08:06.631Z,493.4615
2023-03-29T06:09:08.250Z,493.6154
2023-03-29T06:10:09.918Z,446.7692
2023-03-29T06:11:11.543Z,110.5385
2023-03-29T06:12:13.216Z,0.0000
2023-03-29T06:13:14.878Z,0.0000
2023-03-29T06:14:16.516Z,0.0000
2023-03-29T06:15:18.156Z,0.0000
2023-03-29T06:16:19.839Z,0.0000
2023-03-29T06:17:21.457Z,0.0000
2023-03-29T06:18:23.180Z,0.0000
2023-03-29T06:19:24.764Z,0.0000
2023-03-29T06:20:26.447Z,0.0000
2023-03-29T06:21:28.063Z,0.0000
2023-03-29T06:22:29.754Z,0.0000
2023-03-29T06:23:31.411Z,0.0000
2023-03-29T06:24:33.044Z,0.0000
2023-03-29T06:25:34.699Z,0.0000
2023-03-29T06:26:36.349Z,0.0000
2023-03-29T06:27:38.008Z,0.0000
2023-03-29T06:28:39.702Z,21.3077
2023-03-29T06:29:41.298Z,136.8462
2023-03-29T06:30:42.962Z,261.2308
2023-03-29T06:31:44.668Z,338.3846
2023-03-29T06:32:46.332Z,522.6923
2023-03-29T06:33:47.931Z,515.6923
2023-03-29T06:34:49.600Z,479.9231
2023-03-29T06:35:51.305Z,451.0769
2023-03-29T06:36:52.888Z,427.0000
2023-03-29T06:37:54.562Z,397.5385
2023-03-29T06:38:56.240Z,390.3846
2023-03-29T06:39:57.841Z,383.6154
2023-03-29T06:40:59.610Z,387.3077
2023-03-29T06:42:10.057Z,573.9231
2023-03-29T06:43:02.804Z,534.4167
2023-03-29T06:44:04.450Z,488.7692
2023-03-29T06:45:06.138Z,472.4615
2023-03-29T06:46:07.790Z,459.8462
2023-03-29T06:47:09.528Z,448.1538
2023-03-29T06:48:11.171Z,435.2308
2023-03-29T06:49:12.869Z,424.2308
2023-03-29T06:50:14.445Z,414.6923
2023-03-29T06:51:16.118Z,411.9231
2023-03-29T06:52:17.744Z,408.0769
2023-03-29T06:53:19.415Z,408.7692
2023-03-29T06:54:21.142Z,409.5385
2023-03-29T06:55:22.721Z,411.5385
2023-03-29T06:56:24.370Z,418.5385
2023-03-29T06:57:26.177Z,427.0000
2023-03-29T06:58:27.662Z,422.2308
2023-03-29T06:59:29.368Z,421.5385
2023-03-29T07:00:30.988Z,422.3846
2023-03-29T07:01:32.651Z,425.1538
2023-03-29T07:02:34.285Z,429.7692
2023-03-29T07:03:35.959Z,432.9231
2023-03-29T07:04:37.670Z,434.2308
2023-03-29T07:05:39.311Z,436.1538
2023-03-29T07:06:40.889Z,437.2308
2023-03-29T07:07:42.559Z,437.3077
2023-03-29T07:08:44.202Z,437.8462
2023-03-29T07:09:45.880Z,438.3846
2023-03-29T07:10:47.602Z,440.4615
2023-03-29T07:11:49.168Z,439.2308
2023-03-29T07:12:50.796Z,442.2308
2023-03-29T07:13:52.490Z,441.9231
2023-03-29T07:14:54.147Z,444.0000
2023-03-29T07:15:55.838Z,446.0769
2023-03-29T07:16:57.445Z,447.3077
2023-03-29T07:17:59.181Z,450.2308
2023-03-29T07:19:00.738Z,451.1538
2023-03-29T07:20:02.499Z,452.7692
2023-03-29T07:21:04.154Z,455.1538
2023-03-29T07:22:05.708Z,456.3077
2023-03-29T07:23:07.370Z,453.5385
2023-03-29T07:24:09.007Z,455.2308
2023-03-29T07:25:10.693Z,459.2308
2023-03-29T07:26:12.323Z,460.1538
2023-03-29T07:27:13.977Z,461.6154
2023-03-29T07:28:15.670Z,462.1538
2023-03-29T07:29:17.288Z,461.7692
2023-03-29T07:30:18.942Z,465.0769
2023-03-29T07:31:20.558Z,464.1538
2023-03-29T07:32:22.497Z,467.4615
2023-03-29T07:33:23.998Z,467.6923
2023-03-29T07:34:25.540Z,468.8462
2023-03-29T07:35:27.189Z,475.6923
2023-03-29T07:36:28.870Z,470.6923
2023-03-29T07:37:30.493Z,471.9231
2023-03-29T07:38:32.179Z,475.0769
2023-03-29T07:39:33.797Z,475.7692
2023-03-29T07:40:35.476Z,481.0769
2023-03-29T07:41:37.099Z,478.6923
2023-03-29T07:42:38.792Z,480.0000
2023-03-29T07:43:40.422Z,482.5385
2023-03-29T07:44:42.097Z,483.5385
2023-03-29T07:45:43.743Z,480.8462
2023-03-29T07:46:45.412Z,485.0000
2023-03-29T07:47:47.032Z,487.6154
2023-03-29T07:48:48.696Z,488.9231
2023-03-29T07:49:50.330Z,490.9231
2023-03-29T07:50:52.048Z,490.0769
2023-03-29T07:51:53.635Z,487.4615
2023-03-29T07:52:55.286Z,493.2308
2023-03-29T07:53:56.958Z,491.3077
2023-03-29T07:54:58.589Z,495.7692
2023-03-29T07:56:00.270Z,494.6923
2023-03-29T07:57:01.978Z,492.0000
2023-03-29T07:58:03.548Z,494.1538
2023-03-29T07:59:05.221Z,497.3846
2023-03-29T08:00:06.856Z,493.1538
2023-03-29T08:01:08.639Z,490.9231
2023-03-29T08:02:10.161Z,489.0000
2023-03-29T08:03:11.895Z,485.3846
2023-03-29T08:04:13.534Z,479.7692
2023-03-29T08:05:17.476Z,482.3846
2023-03-29T08:06:16.838Z,481.0000
2023-03-29T08:07:18.967Z,479.3077
2023-03-29T08:08:20.078Z,481.6154
2023-03-29T08:09:21.766Z,479.2308
2023-03-29T08:10:23.384Z,479.0769
2023-03-29T08:11:25.074Z,479.7692
2023-03-29T08:12:26.700Z,485.3077
2023-03-29T08:13:28.362Z,481.6923
2023-03-29T08:14:30.009Z,485.6154
2023-03-29T08:15:31.667Z,484.8462
2023-03-29T08:16:33.406Z,489.0000
2023-03-29T08:17:35.082Z,487.1538
2023-03-29T08:18:36.737Z,483.6154
2023-03-29T08:19:38.290Z,488.8462
2023-03-29T08:20:39.919Z,485.5385
2023-03-29T08:21:41.619Z,489.1538
2023-03-29T08:22:43.228Z,491.7692
2023-03-29T08:23:44.918Z,491.0000
2023-03-29T08:24:46.547Z,491.8462
2023-03-29T08:25:48.247Z,492.9231
2023-03-29T08:26:49.883Z,492.2308
2023-03-29T08:27:51.520Z,495.1538
2023-03-29T08:28:53.157Z,493.4615
2023-03-29T08:29:54.836Z,497.0769
2023-03-29T08:30:56.485Z,496.1538
2023-03-29T08:31:58.159Z,496.4615
2023-03-29T08:32:59.787Z,500.1538
2023-03-29T08:34:01.437Z,496.3077
2023-03-29T08:35:03.078Z,498.5385
2023-03-29T08:36:04.780Z,499.4615
2023-03-29T08:37:06.414Z,498.0769
2023-03-29T08:38:08.067Z,498.4615
2023-03-29T08:39:09.686Z,500.2308
2023-03-29T08:40:11.363Z,502.4615
2023-03-29T08:41:13.000Z,529.1539
2023-03-29T08:42:14.689Z,549.6154
2023-03-29T08:43:16.287Z,549.0000
2023-03-29T08:44:17.974Z,439.9231
2023-03-29T08:45:19.646Z,403.7692
2023-03-29T08:46:21.346Z,493.7692
2023-03-29T08:47:22.933Z,498.3846
2023-03-29T08:48:24.573Z,498.9231
2023-03-29T08:49:26.251Z,501.6923
2023-03-29T08:50:27.888Z,505.7692
2023-03-29T08:51:29.532Z,508.8462
2023-03-29T08:52:31.290Z,513.3077
2023-03-29T08:53:32.858Z,514.7692
2023-03-29T08:54:34.517Z,515.4615
2023-03-29T08:55:36.145Z,515.4615
2023-03-29T08:56:37.835Z,517.0000
2023-03-29T08:57:39.559Z,524.9231
2023-03-29T08:58:41.134Z,527.6923
2023-03-29T08:59:42.743Z,524.0000
2023-03-29T09:00:44.431Z,523.3846
2023-03-29T09:01:48.447Z,522.4615
2023-03-29T09:02:47.829Z,527.3846
2023-03-29T09:03:49.473Z,524.8461
2023-03-29T09:04:51.013Z,527.0000
2023-03-29T09:05:52.649Z,527.7692
2023-03-29T09:06:54.339Z,525.2308
2023-03-29T09:07:55.976Z,526.0000
2023-03-29T09:08:57.633Z,526.3846
2023-03-29T09:09:59.263Z,533.0769
2023-03-29T09:11:01.091Z,533.3077
2023-03-29T09:12:02.570Z,538.0769
2023-03-29T09:13:04.299Z,536.8461
2023-03-29T09:14:05.879Z,537.3846
2023-03-29T09:15:07.549Z,543.6923
2023-03-29T09:16:09.173Z,549.3846
2023-03-29T09:17:10.868Z,549.0000
2023-03-29T09:18:12.556Z,550.6923
2023-03-29T09:19:14.172Z,554.8461
2023-03-29T09:20:15.802Z,558.5385
2023-03-29T09:21:17.462Z,559.6923
2023-03-29T09:22:20.078Z,555.5385
2023-03-29T09:23:20.793Z,558.8461
2023-03-29T09:24:22.423Z,560.0769
2023-03-29T09:25:24.097Z,559.2308
2023-03-29T09:26:25.740Z,561.0000
2023-03-29T09:27:27.393Z,561.6154
2023-03-29T09:28:29.049Z,563.3846
2023-03-29T09:29:30.703Z,560.1539
2023-03-29T09:30:32.360Z,562.3077
2023-03-29T09:31:34.042Z,561.6923
2023-03-29T09:32:35.706Z,564.1539
2023-03-29T09:33:37.406Z,563.0000
2023-03-29T09:34:38.970Z,560.7692
2023-03-29T09:35:40.640Z,564.6923
2023-03-29T09:36:42.269Z,566.3077
2023-03-29T09:37:43.934Z,565.9231
2023-03-29T09:38:45.604Z,565.4615
2023-03-29T09:39:47.267Z,566.6154
2023-03-29T09:40:48.900Z,566.7692
2023-03-29T09:41:50.545Z,567.4615
2023-03-29T09:42:52.331Z,566.2308
2023-03-29T09:43:53.896Z,571.1539
2023-03-29T09:44:55.489Z,571.3846
2023-03-29T09:45:57.238Z,568.6154
2023-03-29T09:46:58.857Z,568.6154
2023-03-29T09:48:00.572Z,573.1539
2023-03-29T09:49:02.169Z,570.4615
2023-03-29T09:50:03.799Z,572.6923
2023-03-29T09:51:05.431Z,575.0000
2023-03-29T09:52:07.075Z,575.5385
2023-03-29T09:53:08.726Z,574.2308
2023-03-29T09:54:10.436Z,573.3846
2023-03-29T09:55:12.030Z,572.6154
2023-03-29T09:56:13.699Z,574.6154
2023-03-29T09:57:15.415Z,577.0000
2023-03-29T09:58:17.026Z,575.4615
2023-03-29T09:59:18.691Z,577.7692
2023-03-29T10:00:20.313Z,579.2308
2023-03-29T10:01:21.949Z,576.7692
2023-03-29T10:02:23.628Z,577.0000
2023-03-29T10:03:25.241Z,582.0000
2023-03-29T10:04:26.992Z,579.7692
2023-03-29T10:05:28.548Z,584.4615
2023-03-29T10:06:30.215Z,587.5385
2023-03-29T10:07:31.852Z,593.8461
2023-03-29T10:08:33.578Z,596.1539
2023-03-29T10:09:35.200Z,605.9231
2023-03-29T10:10:36.889Z,615.0769
2023-03-29T10:11:38.498Z,620.8461
2023-03-29T10:12:40.138Z,621.0000
2023-03-29T10:13:41.777Z,612.1539
2023-03-29T10:14:43.468Z,607.0769
2023-03-29T10:15:45.103Z,605.3077
2023-03-29T10:16:46.874Z,602.0769
2023-03-29T10:17:48.467Z,602.0769
2023-03-29T10:18:50.061Z,603.6154
2023-03-29T10:19:51.741Z,613.0000
2023-03-29T10:20:53.384Z,625.0769
2023-03-29T10:21:55.023Z,626.2308
2023-03-29T10:22:56.674Z,622.7692
2023-03-29T10:23:58.304Z,629.3077
2023-03-29T10:25:00.031Z,632.4615
2023-03-29T10:26:01.625Z,631.3846
2023-03-29T10:27:03.290Z,636.8461
2023-03-29T10:28:04.935Z,663.3846
2023-03-29T10:29:06.594Z,928.7692
2023-03-29T10:30:08.253Z,964.3846
2023-03-29T10:31:09.928Z,913.9231
2023-03-29T10:32:11.574Z,809.6923
2023-03-29T10:33:13.219Z,772.9231
2023-03-29T10:34:14.830Z,829.8461
2023-03-29T10:35:16.536Z,1261.4615
2023-03-29T10:36:18.156Z,1127.3077
2023-03-29T10:37:19.818Z,1002.3846
2023-03-29T10:38:21.486Z,927.9231
2023-03-29T10:39:23.112Z,947.4615
2023-03-29T10:40:24.787Z,1119.7693
2023-03-29T10:41:26.414Z,1159.6154
2023-03-29T10:42:28.047Z,1081.2307
2023-03-29T10:43:29.799Z,933.0769
2023-03-29T10:44:33.174Z,886.4615
2023-03-29T10:45:33.073Z,1016.7692
2023-03-29T10:46:34.789Z,794.5385
2023-03-29T10:47:36.361Z,418.6923
2023-03-29T10:48:38.023Z,296.7692
2023-03-29T10:49:39.656Z,600.3846
2023-03-29T10:50:41.367Z,636.8461
2023-03-29T10:51:43.018Z,858.2308
2023-03-29T10:52:44.650Z,1123.6923
2023-03-29T10:53:46.325Z,950.7692
2023-03-29T10:54:47.956Z,713.5385
2023-03-29T10:55:49.657Z,677.8461
2023-03-29T10:56:52.558Z,691.9231
2023-03-29T10:57:52.925Z,677.9231
2023-03-29T10:58:54.574Z,728.0000
2023-03-29T10:59:56.218Z,690.0000
2023-03-29T11:00:57.875Z,711.7692
2023-03-29T11:01:59.561Z,765.6154
2023-03-29T11:03:01.217Z,724.0769
2023-03-29T11:04:02.909Z,710.2308
2023-03-29T11:05:04.441Z,765.3846
2023-03-29T11:06:06.141Z,855.4615
2023-03-29T11:07:07.751Z,717.4615
2023-03-29T11:08:09.439Z,795.6923
2023-03-29T11:09:11.054Z,848.7692
2023-03-29T11:10:12.738Z,730.2308
2023-03-29T11:11:14.406Z,680.0000
2023-03-29T11:12:16.659Z,682.3077
2023-03-29T11:13:17.694Z,678.3077
2023-03-29T11:14:19.331Z,668.8461
2023-03-29T11:15:20.950Z,676.6923
2023-03-29T11:16:22.906Z,687.1539
2023-03-29T11:17:24.275Z,681.9231
2023-03-29T11:18:25.929Z,679.8461
2023-03-29T11:19:27.574Z,674.9231
2023-03-29T11:20:29.241Z,672.6154
2023-03-29T11:21:30.897Z,667.0769
2023-03-29T11:22:32.560Z,661.3846
2023-03-29T11:23:34.196Z,658.1539
2023-03-29T11:24:35.875Z,660.9231
2023-03-29T11:25:37.478Z,661.0769
2023-03-29T11:26:39.203Z,663.2308
2023-03-29T11:27:40.787Z,664.4615
2023-03-29T11:28:42.468Z,666.7692
2023-03-29T11:29:44.126Z,668.9231
2023-03-29T11:30:45.798Z,667.9231
2023-03-29T11:31:47.508Z,669.6923
2023-03-29T11:32:49.086Z,673.6923
2023-03-29T11:33:50.713Z,671.8461
2023-03-29T11:34:52.384Z,671.4615
2023-03-29T11:35:54.064Z,674.0000
2023-03-29T11:36:55.727Z,675.7692
2023-03-29T11:37:57.313Z,675.0000
2023-03-29T11:38:58.968Z,673.9231
2023-03-29T11:40:00.611Z,678.1539
2023-03-29T11:41:02.596Z,677.7692
2023-03-29T11:42:03.935Z,677.0000
2023-03-29T11:43:05.576Z,676.7692
2023-03-29T11:44:07.236Z,679.9231
2023-03-29T11:45:08.874Z,683.9231
2023-03-29T11:46:10.523Z,685.1539
2023-03-29T11:47:12.233Z,683.0769
2023-03-29T11:48:13.821Z,683.7692
2023-03-29T11:49:15.489Z,687.9231
2023-03-29T11:50:17.142Z,688.6154
2023-03-29T11:51:18.791Z,753.3846
2023-03-29T11:52:20.468Z,884.0769
2023-03-29T11:53:22.080Z,901.1539
2023-03-29T11:54:23.758Z,1150.3846
2023-03-29T11:55:25.398Z,1020.2308
2023-03-29T11:56:27.042Z,989.2308
2023-03-29T11:57:28.861Z,928.8461
2023-03-29T11:58:30.344Z,963.4615
2023-03-29T11:59:31.992Z,912.0769
2023-03-29T12:00:33.659Z,869.7692
2023-03-29T12:01:35.299Z,851.4615
2023-03-29T12:02:37.105Z,882.9231
2023-03-29T12:03:38.797Z,726.0000
2023-03-29T12:04:40.297Z,439.6923